createdAt,value
2023-03-05T00:00:27.444Z,5.37
2023-03-05T00:03:16.382Z,4.00
2023-03-05T00:06:07.659Z,4.30
2023-03-05T00:08:58.689Z,4.53
2023-03-05T00:11:47.629Z,5.07
2023-03-05T00:14:36.247Z,3.20
2023-03-05T00:17:25.160Z,4.23
2023-03-05T00:20:14.493Z,3.50
2023-03-05T00:23:04.976Z,5.10
2023-03-05T00:25:53.891Z,4.30
2023-03-05T00:28:43.102Z,4.57
2023-03-05T00:31:34.187Z,4.47
2023-03-05T00:34:23.692Z,4.33
2023-03-05T00:37:12.956Z,4.40
2023-03-05T00:40:05.829Z,3.63
2023-03-05T00:42:54.982Z,3.13
2023-03-05T00:45:43.803Z,4.50
2023-03-05T00:48:33.068Z,4.47
2023-03-05T00:51:22.875Z,5.03
2023-03-05T00:54:12.546Z,3.40
2023-03-05T00:57:03.072Z,5.10
2023-03-05T00:59:52.326Z,4.10
2023-03-05T01:02:41.527Z,4.30
2023-03-05T01:05:30.810Z,5.20
2023-03-05T01:08:20.244Z,6.00
2023-03-05T01:11:09.903Z,4.63
2023-03-05T01:14:00.696Z,4.00
2023-03-05T01:16:50.797Z,4.73
2023-03-05T01:19:40.072Z,4.90
2023-03-05T01:22:29.046Z,4.13
2023-03-05T01:25:19.019Z,5.60
2023-03-05T01:28:08.286Z,5.10
2023-03-05T01:30:58.686Z,3.90
2023-03-05T01:33:47.528Z,5.33
2023-03-05T01:36:36.196Z,4.47
2023-03-05T01:39:25.150Z,4.57
2023-03-05T01:42:14.072Z,4.63
2023-03-05T01:45:07.229Z,4.90
2023-03-05T01:47:57.886Z,4.53
2023-03-05T01:50:47.301Z,4.23
2023-03-05T01:53:36.321Z,5.67
2023-03-05T01:56:25.647Z,4.93
2023-03-05T01:59:15.475Z,5.10
2023-03-05T02:02:06.278Z,4.43
2023-03-05T02:04:59.103Z,4.87
2023-03-05T02:07:48.506Z,4.80
2023-03-05T02:10:39.620Z,5.50
2023-03-05T02:13:30.077Z,5.93
2023-03-05T02:16:19.506Z,4.87
2023-03-05T02:19:11.543Z,5.30
2023-03-05T02:22:01.925Z,4.40
2023-03-05T02:24:51.290Z,5.03
2023-03-05T02:27:42.409Z,4.90
2023-03-05T02:30:31.574Z,5.93
2023-03-05T02:33:21.762Z,4.50
2023-03-05T02:36:12.269Z,4.70
2023-03-05T02:39:03.071Z,4.80
2023-03-05T02:41:52.033Z,4.60
2023-03-05T02:44:41.299Z,5.27
2023-03-05T02:47:30.628Z,4.93
2023-03-05T02:50:19.930Z,4.77
2023-03-05T02:53:09.541Z,5.37
2023-03-05T02:56:01.156Z,5.27
2023-03-05T02:58:51.117Z,3.93
2023-03-05T03:01:40.252Z,4.70
2023-03-05T03:04:29.370Z,5.67
2023-03-05T03:07:18.529Z,5.23
2023-03-05T03:10:08.618Z,5.90
2023-03-05T03:12:59.084Z,4.83
2023-03-05T03:15:48.085Z,5.33
2023-03-05T03:18:37.088Z,6.10
2023-03-05T03:21:27.120Z,4.07
2023-03-05T03:24:16.099Z,4.87
2023-03-05T03:27:05.336Z,5.40
2023-03-05T03:29:55.716Z,4.80
2023-03-05T03:32:45.032Z,4.67
2023-03-05T03:35:34.121Z,4.67
2023-03-05T03:38:26.100Z,4.70
2023-03-05T03:41:14.971Z,3.90
2023-03-05T03:44:05.084Z,4.37
2023-03-05T03:46:55.560Z,4.37
2023-03-05T03:49:44.578Z,4.53
2023-03-05T03:52:33.648Z,6.23
2023-03-05T03:55:22.811Z,3.60
2023-03-05T03:58:12.558Z,4.90
2023-03-05T04:01:01.626Z,4.13
2023-03-05T04:03:52.398Z,4.73
2023-03-05T04:06:42.164Z,4.67
2023-03-05T04:09:31.484Z,5.33
2023-03-05T04:12:21.158Z,5.17
2023-03-05T04:15:11.712Z,4.90
2023-03-05T04:18:01.392Z,6.70
2023-03-05T04:20:52.321Z,6.30
2023-03-05T04:23:44.996Z,4.47
2023-03-05T04:26:34.270Z,4.27
2023-03-05T04:29:23.532Z,5.40
2023-03-05T04:32:12.581Z,5.00
2023-03-05T04:35:02.171Z,5.33
2023-03-05T04:37:55.177Z,4.13
2023-03-05T04:40:54.838Z,4.00
2023-03-05T04:43:43.907Z,4.37
2023-03-05T04:46:33.112Z,4.80
2023-03-05T04:49:22.444Z,5.00
2023-03-05T04:52:12.566Z,4.67
2023-03-05T04:55:03.726Z,4.53
2023-03-05T04:57:53.273Z,5.47
2023-03-05T05:00:42.900Z,4.77
2023-03-05T05:03:32.316Z,5.30
2023-03-05T05:06:23.271Z,4.87
2023-03-05T05:09:12.657Z,4.50
2023-03-05T05:12:03.466Z,5.20
2023-03-05T05:14:52.819Z,7.13
2023-03-05T05:17:42.244Z,4.73
2023-03-05T05:20:31.791Z,4.90
2023-03-05T05:23:20.949Z,5.23
2023-03-05T05:26:14.456Z,4.47
2023-03-05T05:29:05.325Z,5.17
2023-03-05T05:31:54.333Z,5.43
2023-03-05T05:34:43.558Z,4.70
2023-03-05T05:37:32.678Z,4.23
2023-03-05T05:40:21.896Z,4.63
2023-03-05T05:43:11.164Z,4.90
2023-03-05T05:46:02.893Z,4.40
2023-03-05T05:48:52.974Z,5.70
2023-03-05T05:51:42.238Z,4.00
2023-03-05T05:54:34.474Z,5.03
2023-03-05T05:57:25.224Z,5.50
2023-03-05T06:00:16.290Z,4.43
2023-03-05T06:03:07.959Z,5.23
2023-03-05T06:05:57.203Z,6.00
2023-03-05T06:08:46.787Z,4.33
2023-03-05T06:11:35.959Z,5.90
2023-03-05T06:14:25.007Z,4.97
2023-03-05T06:17:21.868Z,4.43
2023-03-05T06:20:16.101Z,4.70
2023-03-05T06:23:07.438Z,5.50
2023-03-05T06:25:59.604Z,5.37
2023-03-05T06:28:52.775Z,4.90
2023-03-05T06:31:41.961Z,5.10
2023-03-05T06:34:34.101Z,4.67
2023-03-05T06:37:25.179Z,5.30
2023-03-05T06:40:15.529Z,4.20
2023-03-05T06:43:05.047Z,5.30
2023-03-05T06:46:03.601Z,5.40
2023-03-05T06:48:53.778Z,5.80
2023-03-05T06:51:44.438Z,4.47
2023-03-05T06:54:35.322Z,5.60
2023-03-05T06:57:24.578Z,4.30
2023-03-05T07:00:15.253Z,5.13
2023-03-05T07:03:04.579Z,4.83
2023-03-05T07:05:53.644Z,5.33
2023-03-05T07:08:43.836Z,5.70
2023-03-05T07:11:37.408Z,6.60
2023-03-05T07:14:26.961Z,4.70
2023-03-05T07:17:16.558Z,4.97
2023-03-05T07:20:06.533Z,4.57
2023-03-05T07:22:55.407Z,5.97
2023-03-05T07:25:44.576Z,6.53
2023-03-05T07:28:35.482Z,5.50
2023-03-05T07:31:27.540Z,4.67
2023-03-05T07:34:16.998Z,5.30
2023-03-05T07:37:06.508Z,5.77
2023-03-05T07:39:55.634Z,4.90
2023-03-05T07:42:44.624Z,4.60
2023-03-05T07:45:46.312Z,4.40
2023-03-05T07:48:35.832Z,7.03
2023-03-05T07:51:28.824Z,5.10
2023-03-05T07:54:18.059Z,4.57
2023-03-05T07:57:07.796Z,4.40
2023-03-05T07:59:57.055Z,5.07
2023-03-05T08:02:48.298Z,4.03
2023-03-05T08:05:40.872Z,5.53
2023-03-05T08:08:30.103Z,5.17
2023-03-05T08:11:19.266Z,5.03
2023-03-05T08:14:08.371Z,5.20
2023-03-05T08:16:57.643Z,5.40
2023-03-05T08:19:48.344Z,5.30
2023-03-05T08:22:37.920Z,4.93
2023-03-05T08:25:28.526Z,5.27
2023-03-05T08:28:19.739Z,5.07
2023-03-05T08:31:11.172Z,5.87
2023-03-05T08:34:01.466Z,5.40
2023-03-05T08:36:55.057Z,4.80
2023-03-05T08:39:47.471Z,4.90
2023-03-05T08:42:36.689Z,5.53
2023-03-05T08:45:26.005Z,4.77
2023-03-05T08:48:15.480Z,5.10
2023-03-05T08:51:09.466Z,5.13
2023-03-05T08:54:01.898Z,4.97
2023-03-05T08:56:51.216Z,4.70
2023-03-05T08:59:40.550Z,4.70
2023-03-05T09:02:30.469Z,5.17
2023-03-05T09:05:20.135Z,5.27
2023-03-05T09:08:13.023Z,6.07
2023-03-05T09:11:05.935Z,5.83
2023-03-05T09:13:55.496Z,5.33
2023-03-05T09:16:44.991Z,5.27
2023-03-05T09:19:34.347Z,5.43
2023-03-05T09:22:23.699Z,5.33
2023-03-05T09:25:13.859Z,6.10
2023-03-05T09:28:04.611Z,5.03
2023-03-05T09:30:54.038Z,5.80
2023-03-05T09:33:43.197Z,5.43
2023-03-05T09:36:33.202Z,5.23
2023-03-05T09:39:22.505Z,4.50
2023-03-05T09:42:30.105Z,5.77
2023-03-05T09:45:24.789Z,4.40
2023-03-05T09:48:18.993Z,4.80
2023-03-05T09:51:14.401Z,4.77
2023-03-05T09:54:06.477Z,5.23
2023-03-05T09:56:58.146Z,4.87
2023-03-05T09:59:50.262Z,5.20
2023-03-05T10:02:44.958Z,4.90
2023-03-05T10:05:47.169Z,5.50
2023-03-05T10:08:47.819Z,5.27
2023-03-05T10:11:44.661Z,5.10
2023-03-05T10:14:36.153Z,5.93
2023-03-05T10:17:49.828Z,4.50
2023-03-05T10:20:46.225Z,4.00
2023-03-05T10:23:53.343Z,4.80
2023-03-05T10:27:00.538Z,4.23
2023-03-05T10:29:58.928Z,5.50
2023-03-05T10:33:07.544Z,4.93
2023-03-05T10:36:26.370Z,5.40
2023-03-05T10:39:41.069Z,4.73
2023-03-05T10:42:35.180Z,5.27
2023-03-05T10:45:26.061Z,5.03
2023-03-05T10:48:27.370Z,4.90
2023-03-05T10:51:19.462Z,6.53
2023-03-05T10:54:15.813Z,4.07
2023-03-05T10:57:07.062Z,5.30
2023-03-05T11:00:00.506Z,3.90
2023-03-05T11:02:58.997Z,5.07
2023-03-05T11:05:51.482Z,5.60
2023-03-05T11:08:41.316Z,4.10
2023-03-05T11:11:31.549Z,4.50
2023-03-05T11:14:30.992Z,5.63
2023-03-05T11:17:30.027Z,4.10
2023-03-05T11:20:32.968Z,4.77
2023-03-05T11:23:24.897Z,4.67
2023-03-05T11:26:21.334Z,4.70
2023-03-05T11:29:19.306Z,5.43
2023-03-05T11:32:17.702Z,4.20
2023-03-05T11:35:28.081Z,4.20
2023-03-05T11:38:19.363Z,3.70
2023-03-05T11:41:11.312Z,5.70
2023-03-05T11:44:03.958Z,4.30
2023-03-05T11:46:55.584Z,3.77
2023-03-05T11:49:47.209Z,4.60
2023-03-05T11:52:42.533Z,5.60
2023-03-05T11:55:35.990Z,6.60
2023-03-05T11:58:33.247Z,5.60
2023-03-05T12:01:24.362Z,3.70
2023-03-05T12:04:13.765Z,4.23
2023-03-05T12:07:06.688Z,4.60
2023-03-05T12:09:55.819Z,4.57
2023-03-05T12:12:49.307Z,4.33
2023-03-05T12:15:56.863Z,5.07
2023-03-05T12:18:53.418Z,5.50
2023-03-05T12:21:43.815Z,5.20
2023-03-05T12:24:39.438Z,5.00
2023-03-05T12:27:36.926Z,4.03
2023-03-05T12:30:58.181Z,4.20
2023-03-05T12:33:47.187Z,5.20
2023-03-05T12:36:39.830Z,3.73
2023-03-05T12:39:52.990Z,5.50
2023-03-05T12:43:03.730Z,3.50
2023-03-05T12:45:53.318Z,3.83
2023-03-05T12:48:46.776Z,4.70
2023-03-05T12:51:37.831Z,4.50
2023-03-05T12:54:31.602Z,4.70
2023-03-05T12:57:21.801Z,4.47
2023-03-05T13:00:13.403Z,4.70
2023-03-05T13:03:04.129Z,3.60
2023-03-05T13:05:56.347Z,3.30
2023-03-05T13:08:45.180Z,3.50
2023-03-05T13:11:36.337Z,3.80
2023-03-05T13:14:30.731Z,3.17
2023-03-05T13:17:33.613Z,3.53
2023-03-05T13:20:35.172Z,3.20
2023-03-05T13:23:26.895Z,2.90
2023-03-05T13:26:19.032Z,2.40
2023-03-05T13:29:10.634Z,3.17
2023-03-05T13:32:02.048Z,3.90
2023-03-05T13:34:58.626Z,3.90
2023-03-05T13:37:48.195Z,4.00
2023-03-05T13:40:41.037Z,3.40
2023-03-05T13:43:30.115Z,2.63
2023-03-05T13:46:30.863Z,3.10
2023-03-05T13:49:23.714Z,3.00
2023-03-05T13:52:15.886Z,2.63
2023-03-05T13:55:12.175Z,3.37
2023-03-05T13:58:02.517Z,3.20
2023-03-05T14:01:04.482Z,3.03
2023-03-05T14:03:56.227Z,3.03
2023-03-05T14:06:50.332Z,3.27
2023-03-05T14:09:48.537Z,2.43
2023-03-05T14:12:40.975Z,4.10
2023-03-05T14:15:33.419Z,3.20
2023-03-05T14:18:22.696Z,2.90
2023-03-05T14:21:12.588Z,2.57
2023-03-05T14:24:13.621Z,3.33
2023-03-05T14:27:05.793Z,2.90
2023-03-05T14:29:55.450Z,3.23
2023-03-05T14:32:46.445Z,3.33
2023-03-05T14:35:36.647Z,3.17
2023-03-05T14:38:27.963Z,2.70
2023-03-05T14:41:22.027Z,2.60
2023-03-05T14:44:14.275Z,3.23
2023-03-05T14:47:03.251Z,2.97
2023-03-05T14:49:54.051Z,2.73
2023-03-05T14:52:42.971Z,2.60
2023-03-05T14:55:33.582Z,3.23
2023-03-05T14:58:26.099Z,2.87
2023-03-05T15:01:15.468Z,2.70
2023-03-05T15:04:04.876Z,3.03
2023-03-05T15:06:55.199Z,2.70
2023-03-05T15:09:44.261Z,2.67
2023-03-05T15:12:33.626Z,2.67
2023-03-05T15:15:23.472Z,2.40
2023-03-05T15:18:14.330Z,2.80
2023-03-05T15:21:06.973Z,2.43
2023-03-05T15:23:57.674Z,3.33
2023-03-05T15:26:47.760Z,2.70
2023-03-05T15:29:38.237Z,2.80
2023-03-05T15:32:28.223Z,2.50
2023-03-05T15:35:17.502Z,2.57
2023-03-05T15:38:07.093Z,2.80
2023-03-05T15:40:59.909Z,2.50
2023-03-05T15:43:50.750Z,2.30
2023-03-05T15:46:40.010Z,2.47
2023-03-05T15:49:29.188Z,3.47
2023-03-05T15:52:18.457Z,2.60
2023-03-05T15:55:08.688Z,2.50
2023-03-05T15:57:59.252Z,2.60
2023-03-05T16:00:49.289Z,2.77
2023-03-05T16:03:38.501Z,2.73
2023-03-05T16:06:28.138Z,3.00
2023-03-05T16:09:17.806Z,3.07
2023-03-05T16:12:11.273Z,2.20
2023-03-05T16:15:01.952Z,2.30
2023-03-05T16:17:53.982Z,2.57
2023-03-05T16:20:42.976Z,2.60
2023-03-05T16:23:32.106Z,2.53
2023-03-05T16:26:21.198Z,2.90
2023-03-05T16:29:10.441Z,2.63
2023-03-05T16:32:02.474Z,3.10
2023-03-05T16:34:51.949Z,2.87
2023-03-05T16:37:41.663Z,3.17
2023-03-05T16:40:56.487Z,2.70
2023-03-05T16:43:41.375Z,3.80
2023-03-05T16:46:34.026Z,3.17
2023-03-05T16:49:25.639Z,2.97
2023-03-05T16:52:19.143Z,3.83
2023-03-05T16:55:09.653Z,3.97
2023-03-05T16:57:58.859Z,3.97
2023-03-05T17:00:49.137Z,3.60
2023-03-05T17:03:41.836Z,3.23
2023-03-05T17:06:35.114Z,3.40
2023-03-05T17:09:24.972Z,2.80
2023-03-05T17:12:14.030Z,3.20
2023-03-05T17:15:03.760Z,2.67
2023-03-05T17:17:52.978Z,3.70
2023-03-05T17:20:42.357Z,2.27
2023-03-05T17:23:33.259Z,3.03
2023-03-05T17:26:22.529Z,2.73
2023-03-05T17:29:12.048Z,2.83
2023-03-05T17:32:01.334Z,2.80
2023-03-05T17:34:54.633Z,2.90
2023-03-05T17:37:44.112Z,2.73
2023-03-05T17:40:35.224Z,2.57
2023-03-05T17:43:24.701Z,2.70
2023-03-05T17:46:13.980Z,3.17
2023-03-05T17:49:03.192Z,3.30
2023-03-05T17:51:52.712Z,3.20
2023-03-05T17:54:42.222Z,2.97
2023-03-05T17:57:32.750Z,3.57
2023-03-05T18:00:24.811Z,3.57
2023-03-05T18:03:15.264Z,3.67
2023-03-05T18:06:05.206Z,3.97
2023-03-05T18:08:54.582Z,3.73
2023-03-05T18:11:44.157Z,4.03
2023-03-05T18:14:34.757Z,4.50
2023-03-05T18:17:24.520Z,3.27
2023-03-05T18:20:26.152Z,3.00
2023-03-05T18:23:15.633Z,2.90
2023-03-05T18:26:05.051Z,3.47
2023-03-05T18:28:54.375Z,2.90
2023-03-05T18:31:45.314Z,2.80
2023-03-05T18:34:35.059Z,4.30
2023-03-05T18:37:24.271Z,4.50
2023-03-05T18:40:17.485Z,3.83
2023-03-05T18:43:08.162Z,4.43
2023-03-05T18:45:58.535Z,3.70
2023-03-05T18:48:49.191Z,3.63
2023-03-05T18:51:38.712Z,3.73
2023-03-05T18:54:27.978Z,2.93
2023-03-05T18:57:20.321Z,3.13
2023-03-05T19:00:11.846Z,2.80
2023-03-05T19:03:02.687Z,3.10
2023-03-05T19:05:53.352Z,3.10
2023-03-05T19:08:42.673Z,3.27
2023-03-05T19:11:31.895Z,3.43
2023-03-05T19:14:20.955Z,2.90
2023-03-05T19:17:10.537Z,3.00
2023-03-05T19:20:00.607Z,3.07
2023-03-05T19:22:51.328Z,3.43
2023-03-05T19:25:42.365Z,3.77
2023-03-05T19:28:31.515Z,5.43
2023-03-05T19:31:20.707Z,5.67
2023-03-05T19:34:10.305Z,4.77
2023-03-05T19:36:59.733Z,4.23
2023-03-05T19:39:50.205Z,4.53
2023-03-05T19:42:39.699Z,3.80
2023-03-05T19:45:28.896Z,4.37
2023-03-05T19:48:18.133Z,3.80
2023-03-05T19:51:10.149Z,3.97
2023-03-05T19:54:03.605Z,3.60
2023-03-05T19:56:55.935Z,3.80
2023-03-05T19:59:46.986Z,3.77
2023-03-05T20:02:40.556Z,3.30
2023-03-05T20:05:55.174Z,3.90
2023-03-05T20:08:45.005Z,3.87
2023-03-05T20:11:34.375Z,4.20
2023-03-05T20:14:25.182Z,4.07
2023-03-05T20:17:14.471Z,3.30
2023-03-05T20:20:03.677Z,3.60
2023-03-05T20:22:53.035Z,4.20
2023-03-05T20:25:42.136Z,3.60
2023-03-05T20:28:31.534Z,4.30
2023-03-05T20:31:24.106Z,5.80
2023-03-05T20:34:17.617Z,4.00
2023-03-05T20:37:07.704Z,3.77
2023-03-05T20:39:57.110Z,4.23
2023-03-05T20:42:46.152Z,3.70
2023-03-05T20:45:36.885Z,2.80
2023-03-05T20:48:28.941Z,3.53
2023-03-05T20:51:22.848Z,3.40
2023-03-05T20:54:14.524Z,3.40
2023-03-05T20:57:03.458Z,3.70
2023-03-05T20:59:52.944Z,3.10
2023-03-05T21:02:42.419Z,4.20
2023-03-05T21:05:33.445Z,3.80
2023-03-05T21:08:22.714Z,3.50
2023-03-05T21:11:13.473Z,3.83
2023-03-05T21:14:03.118Z,3.70
2023-03-05T21:16:52.267Z,3.33
2023-03-05T21:19:41.637Z,3.10
2023-03-05T21:22:32.522Z,3.20
2023-03-05T21:25:22.228Z,3.67
2023-03-05T21:28:15.404Z,3.43
2023-03-05T21:31:09.671Z,2.77
2023-03-05T21:33:58.775Z,3.70
2023-03-05T21:36:48.056Z,3.00
2023-03-05T21:39:40.145Z,4.40
2023-03-05T21:42:29.310Z,4.27
2023-03-05T21:45:21.036Z,3.83
2023-03-05T21:48:10.918Z,2.97
2023-03-05T21:51:08.082Z,3.13
2023-03-05T21:53:57.242Z,2.67
2023-03-05T21:56:47.636Z,3.13
2023-03-05T21:59:36.941Z,3.33
2023-03-05T22:02:26.480Z,3.50
2023-03-05T22:05:15.737Z,3.80
2023-03-05T22:08:05.218Z,3.50
2023-03-05T22:10:54.684Z,3.30
2023-03-05T22:13:45.623Z,4.10
2023-03-05T22:16:34.977Z,3.03
2023-03-05T22:19:27.626Z,3.80
2023-03-05T22:22:16.876Z,3.70
2023-03-05T22:25:06.879Z,3.33
2023-03-05T22:27:56.564Z,3.73
2023-03-05T22:30:47.390Z,2.70
2023-03-05T22:33:36.656Z,3.60
2023-03-05T22:36:26.119Z,2.80
2023-03-05T22:39:15.445Z,3.60
2023-03-05T22:42:05.159Z,3.23
2023-03-05T22:44:57.555Z,3.40
2023-03-05T22:47:50.357Z,2.77
2023-03-05T22:50:39.623Z,2.80
2023-03-05T22:53:29.098Z,3.17
2023-03-05T22:56:20.275Z,3.50
2023-03-05T22:59:09.762Z,2.33
2023-03-05T23:01:58.883Z,3.37
2023-03-05T23:04:50.330Z,2.70
2023-03-05T23:07:43.154Z,3.37
2023-03-05T23:10:32.814Z,3.17
2023-03-05T23:13:22.235Z,2.60
2023-03-05T23:16:11.542Z,2.60
2023-03-05T23:19:00.629Z,4.17
2023-03-05T23:21:51.310Z,3.60
2023-03-05T23:24:41.470Z,3.80
2023-03-05T23:27:31.304Z,3.40
2023-03-05T23:30:21.219Z,4.07
2023-03-05T23:33:15.687Z,2.87
2023-03-05T23:36:05.054Z,3.57
2023-03-05T23:38:58.126Z,3.50
2023-03-05T23:41:47.328Z,2.93
2023-03-05T23:44:36.997Z,2.77
2023-03-05T23:47:26.629Z,3.20
2023-03-05T23:50:18.205Z,3.33
2023-03-05T23:53:08.344Z,3.50
2023-03-05T23:55:59.052Z,2.67
2023-03-05T23:58:48.493Z,3.60
